createdAt,value
2022-12-16T00:00:47.549Z,-3.13
2022-12-16T00:03:20.176Z,-3.18
2022-12-16T00:05:53.997Z,-3.18
2022-12-16T00:08:27.808Z,-3.23
2022-12-16T00:11:03.208Z,-3.22
2022-12-16T00:13:37.188Z,-3.21
2022-12-16T00:16:12.786Z,-3.25
2022-12-16T00:18:45.601Z,-3.27
2022-12-16T00:21:19.450Z,-3.27
2022-12-16T00:23:50.260Z,-3.23
2022-12-16T00:26:23.000Z,-3.39
2022-12-16T00:28:55.737Z,-3.41
2022-12-16T00:31:29.564Z,-3.45
2022-12-16T00:34:02.451Z,-3.47
2022-12-16T00:36:35.142Z,-3.42
2022-12-16T00:39:08.267Z,-3.43
2022-12-16T00:41:41.381Z,-3.43
2022-12-16T00:54:16.732Z,-3.62
2022-12-16T00:56:49.890Z,-3.58
2022-12-16T00:59:24.562Z,-3.53
2022-12-16T01:01:57.838Z,-3.50
2022-12-16T01:04:31.041Z,-3.49
2022-12-16T01:07:04.880Z,-3.48
2022-12-16T01:09:38.330Z,-3.45
2022-12-16T01:12:11.991Z,-3.46
2022-12-16T01:14:44.400Z,-3.46
2022-12-16T01:17:17.431Z,-3.57
2022-12-16T01:19:50.370Z,-3.51
2022-12-16T01:22:24.460Z,-3.50
2022-12-16T01:24:55.181Z,-3.51
2022-12-16T01:27:28.011Z,-3.50
2022-12-16T01:30:00.610Z,-3.51
2022-12-16T01:32:33.802Z,-3.50
2022-12-16T01:35:17.976Z,-3.46
2022-12-16T01:37:57.193Z,-3.49
2022-12-16T01:40:29.931Z,-3.39
2022-12-16T01:43:02.470Z,-3.37
2022-12-16T01:45:36.684Z,-3.39
2022-12-16T01:48:21.940Z,-3.40
2022-12-16T01:50:59.823Z,-3.37
2022-12-16T01:53:34.276Z,-3.43
2022-12-16T01:56:07.739Z,-3.37
2022-12-16T01:58:43.210Z,-3.40
2022-12-16T02:01:16.733Z,-3.36
2022-12-16T02:03:51.051Z,-3.38
2022-12-16T02:06:27.471Z,-3.42
2022-12-16T02:09:03.432Z,-3.41
2022-12-16T02:12:10.651Z,-3.43
2022-12-16T02:15:06.332Z,-3.42
2022-12-16T02:17:46.831Z,-3.41
2022-12-16T02:21:01.533Z,-3.41
2022-12-16T02:24:04.144Z,-3.31
2022-12-16T02:27:03.160Z,-3.28
2022-12-16T02:29:52.327Z,-3.22
2022-12-16T02:32:34.602Z,-3.24
2022-12-16T02:35:17.945Z,-3.23
2022-12-16T02:37:58.430Z,-3.25
2022-12-16T02:40:35.479Z,-3.27
2022-12-16T02:43:15.520Z,-3.26
2022-12-16T02:45:50.210Z,-3.22
2022-12-16T02:48:24.763Z,-3.27
2022-12-16T02:50:58.209Z,-3.24
2022-12-16T02:53:34.538Z,-3.23
2022-12-16T02:56:20.624Z,-3.24
2022-12-16T02:59:06.231Z,-3.26
2022-12-16T03:01:46.761Z,-3.20
2022-12-16T03:04:24.720Z,-3.22
2022-12-16T03:07:00.655Z,-3.15
2022-12-16T03:09:39.194Z,-3.09
2022-12-16T03:12:17.064Z,-3.04
2022-12-16T03:14:54.592Z,-3.02
2022-12-16T03:17:29.795Z,-2.97
2022-12-16T03:20:22.347Z,-2.97
2022-12-16T03:23:06.246Z,-3.01
2022-12-16T03:25:43.891Z,-3.02
2022-12-16T03:28:30.348Z,-2.97
2022-12-16T03:31:16.485Z,-2.97
2022-12-16T03:33:56.551Z,-2.94
2022-12-16T03:36:33.656Z,-2.96
2022-12-16T03:39:10.121Z,-2.93
2022-12-16T03:41:46.105Z,-2.91
2022-12-16T03:44:22.764Z,-2.92
2022-12-16T03:46:57.665Z,-2.94
2022-12-16T03:49:31.975Z,-2.94
2022-12-16T03:52:06.801Z,-2.89
2022-12-16T03:54:40.661Z,-2.85
2022-12-16T03:57:15.539Z,-2.85
2022-12-16T03:59:49.877Z,-2.83
2022-12-16T04:02:24.208Z,-2.80
2022-12-16T04:04:59.073Z,-2.75
2022-12-16T04:07:35.242Z,-2.76
2022-12-16T04:10:10.640Z,-2.71
2022-12-16T04:13:14.322Z,-2.75
2022-12-16T04:16:05.762Z,-2.66
2022-12-16T04:18:58.287Z,-2.65
2022-12-16T04:21:49.912Z,-2.61
2022-12-16T04:24:34.514Z,-2.59
2022-12-16T04:27:25.388Z,-2.61
2022-12-16T04:30:18.457Z,-2.63
2022-12-16T04:33:21.293Z,-2.66
2022-12-16T04:36:12.431Z,-2.72
2022-12-16T04:39:03.205Z,-2.71
2022-12-16T04:41:56.113Z,-2.66
2022-12-16T04:44:47.576Z,-2.61
2022-12-16T04:47:39.081Z,-2.57
2022-12-16T04:50:30.721Z,-2.56
2022-12-16T04:53:22.291Z,-2.57
2022-12-16T04:56:13.174Z,-2.58
2022-12-16T04:59:04.909Z,-2.54
2022-12-16T05:01:56.275Z,-2.55
2022-12-16T05:04:47.210Z,-2.54
2022-12-16T05:07:38.847Z,-2.49
2022-12-16T05:10:32.075Z,-2.49
2022-12-16T05:13:22.745Z,-2.46
2022-12-16T05:16:13.479Z,-2.47
2022-12-16T05:19:04.202Z,-2.50
2022-12-16T05:21:55.372Z,-2.48
2022-12-16T05:24:51.241Z,-2.41
2022-12-16T05:27:43.208Z,-2.37
2022-12-16T05:30:41.560Z,-2.42
2022-12-16T05:33:36.280Z,-2.34
2022-12-16T05:36:27.916Z,-2.31
2022-12-16T05:39:28.251Z,-2.23
2022-12-16T05:42:19.209Z,-2.19
2022-12-16T05:45:11.386Z,-2.20
2022-12-16T05:48:02.990Z,-2.18
2022-12-16T05:50:55.303Z,-2.16
2022-12-16T05:54:01.186Z,-2.12
2022-12-16T05:56:52.366Z,-2.14
2022-12-16T05:59:44.801Z,-2.17
2022-12-16T06:02:35.891Z,-2.19
2022-12-16T06:05:27.475Z,-2.22
2022-12-16T06:08:21.377Z,-2.22
2022-12-16T06:11:14.656Z,-2.24
2022-12-16T06:14:08.959Z,-2.30
2022-12-16T06:17:08.711Z,-2.29
2022-12-16T06:19:56.816Z,-2.29
2022-12-16T06:22:49.341Z,-2.31
2022-12-16T06:25:40.523Z,-2.30
2022-12-16T06:28:31.891Z,-2.25
2022-12-16T06:31:25.472Z,-2.23
2022-12-16T06:34:29.341Z,-2.22
2022-12-16T06:37:22.728Z,-2.18
2022-12-16T06:40:16.174Z,-2.15
2022-12-16T06:43:07.687Z,-2.15
2022-12-16T06:45:58.972Z,-2.13
2022-12-16T06:48:50.293Z,-2.08
2022-12-16T06:51:41.448Z,-2.22
2022-12-16T06:54:33.757Z,-2.22
2022-12-16T06:57:24.696Z,-2.21
2022-12-16T07:00:16.514Z,-2.18
2022-12-16T07:03:10.082Z,-2.19
2022-12-16T07:06:02.368Z,-2.14
2022-12-16T07:08:53.451Z,-2.12
2022-12-16T07:11:44.555Z,-2.04
2022-12-16T07:14:43.676Z,-2.06
2022-12-16T07:17:36.013Z,-2.03
2022-12-16T07:20:29.997Z,-1.96
2022-12-16T07:23:20.017Z,-1.90
2022-12-16T07:26:10.862Z,-1.90
2022-12-16T07:29:02.408Z,-1.85
2022-12-16T07:31:53.583Z,-1.78
2022-12-16T07:34:50.010Z,-1.75
2022-12-16T07:37:41.889Z,-1.67
2022-12-16T07:40:33.968Z,-1.69
2022-12-16T07:43:25.466Z,-1.63
2022-12-16T07:46:17.345Z,-1.65
2022-12-16T07:49:11.488Z,-1.70
2022-12-16T07:52:01.114Z,-1.66
2022-12-16T07:54:52.513Z,-1.65
2022-12-16T07:57:44.870Z,-1.65
2022-12-16T08:00:40.646Z,-1.58
2022-12-16T08:03:32.156Z,-1.58
2022-12-16T08:06:23.717Z,-1.50
2022-12-16T08:09:15.033Z,-1.48
2022-12-16T08:12:06.833Z,-1.41
2022-12-16T08:14:55.272Z,-1.35
2022-12-16T08:17:48.339Z,-1.28
2022-12-16T08:20:39.615Z,-1.20
2022-12-16T08:23:31.142Z,-1.24
2022-12-16T08:26:23.388Z,-1.19
2022-12-16T08:29:42.512Z,-1.18
2022-12-16T08:32:26.088Z,-1.15
2022-12-16T08:35:22.548Z,-1.24
2022-12-16T08:38:16.112Z,-1.24
2022-12-16T08:41:07.118Z,-1.24
2022-12-16T08:43:58.314Z,-1.22
2022-12-16T08:46:49.515Z,-1.21
2022-12-16T08:49:40.495Z,-1.13
2022-12-16T08:52:32.230Z,-1.09
2022-12-16T08:55:29.675Z,-1.10
2022-12-16T08:58:20.562Z,-1.17
2022-12-16T09:01:12.370Z,-1.23
2022-12-16T09:04:03.635Z,-1.22
2022-12-16T09:06:55.219Z,-1.18
2022-12-16T09:09:46.181Z,-1.08
2022-12-16T09:12:37.460Z,-1.09
2022-12-16T09:15:29.027Z,-1.07
2022-12-16T09:18:20.120Z,-1.11
2022-12-16T09:21:12.550Z,-1.17
2022-12-16T09:24:03.712Z,-1.19
2022-12-16T09:26:54.734Z,-1.16
2022-12-16T09:29:45.897Z,-1.28
2022-12-16T09:32:36.585Z,-1.27
2022-12-16T09:35:28.343Z,-1.31
2022-12-16T09:38:20.479Z,-1.34
2022-12-16T09:41:11.403Z,-1.31
2022-12-16T09:44:21.718Z,-1.32
2022-12-16T09:47:31.528Z,-1.32
2022-12-16T09:50:28.536Z,-1.27
2022-12-16T09:53:22.997Z,-1.27
2022-12-16T09:56:15.046Z,-1.21
2022-12-16T09:59:11.012Z,-1.15
2022-12-16T10:02:03.598Z,-1.12
2022-12-16T10:04:58.836Z,-1.02
2022-12-16T10:07:56.592Z,-0.96
2022-12-16T10:11:00.264Z,-0.84
2022-12-16T10:13:57.825Z,-0.80
2022-12-16T10:17:02.351Z,-0.87
2022-12-16T10:20:09.072Z,-0.87
2022-12-16T10:23:09.929Z,-0.82
2022-12-16T10:26:08.375Z,-0.70
2022-12-16T10:29:07.278Z,-0.68
2022-12-16T10:32:00.973Z,-0.65
2022-12-16T10:34:58.177Z,-0.68
2022-12-16T10:37:56.410Z,-0.67
2022-12-16T10:40:54.342Z,-0.64
2022-12-16T10:43:55.472Z,-0.55
2022-12-16T10:46:52.169Z,-0.52
2022-12-16T10:49:43.796Z,-0.43
2022-12-16T10:52:36.417Z,-0.57
2022-12-16T10:55:37.381Z,-0.55
2022-12-16T10:58:43.255Z,-0.57
2022-12-16T11:01:45.813Z,-0.57
2022-12-16T11:04:57.950Z,-0.60
2022-12-16T11:07:54.252Z,-0.63
2022-12-16T11:11:02.212Z,-0.75
2022-12-16T11:13:55.091Z,-0.70
2022-12-16T11:16:48.091Z,-0.55
2022-12-16T11:19:49.352Z,-0.54
2022-12-16T11:22:41.849Z,-0.53
2022-12-16T11:25:38.151Z,-0.50
2022-12-16T11:28:33.827Z,-0.55
2022-12-16T11:31:38.068Z,-0.54
2022-12-16T11:34:42.576Z,-0.46
2022-12-16T11:37:50.258Z,-0.34
2022-12-16T11:40:41.610Z,-0.24
2022-12-16T11:43:35.998Z,-0.20
2022-12-16T11:46:33.478Z,-0.20
2022-12-16T11:49:34.068Z,-0.27
2022-12-16T11:52:37.268Z,-0.27
2022-12-16T11:59:01.462Z,-0.13
2022-12-16T12:01:57.310Z,-0.09
2022-12-16T12:04:49.303Z,-0.14
2022-12-16T12:07:55.548Z,-0.20
2022-12-16T12:11:05.300Z,-0.24
2022-12-16T12:14:17.841Z,-0.33
2022-12-16T12:17:23.188Z,-0.32
2022-12-16T12:20:29.348Z,-0.42
2022-12-16T12:23:26.254Z,-0.45
2022-12-16T12:35:05.158Z,-0.97
2022-12-16T12:38:03.172Z,-0.83
2022-12-16T12:41:09.994Z,-0.90
2022-12-16T12:44:11.459Z,-0.92
2022-12-16T12:47:12.063Z,-0.85
2022-12-16T12:50:10.053Z,-0.86
2022-12-16T12:53:24.132Z,-0.86
2022-12-16T12:56:24.467Z,-0.78
2022-12-16T12:59:21.486Z,-0.74
2022-12-16T13:02:15.758Z,-0.74
2022-12-16T13:05:10.782Z,-0.70
2022-12-16T13:08:02.770Z,-0.61
2022-12-16T13:23:53.240Z,-0.11
2022-12-16T13:26:45.192Z,-0.25
2022-12-16T13:29:39.029Z,-0.36
2022-12-16T13:32:41.834Z,-0.49
2022-12-16T13:35:41.219Z,-0.65
2022-12-16T13:38:40.569Z,-0.79
2022-12-16T13:42:08.963Z,-0.83
2022-12-16T13:45:18.499Z,-0.89
2022-12-16T13:48:23.293Z,-0.99
2022-12-16T13:51:18.897Z,-0.97
2022-12-16T13:54:12.686Z,-1.03
2022-12-16T13:57:07.425Z,-1.03
2022-12-16T13:59:59.823Z,-1.14
2022-12-16T14:02:55.073Z,-1.15
2022-12-16T14:05:49.964Z,-1.14
2022-12-16T14:08:42.269Z,-1.26
2022-12-16T14:11:40.024Z,-1.30
2022-12-16T14:14:35.484Z,-1.35
2022-12-16T14:17:29.814Z,-1.39
2022-12-16T14:20:25.602Z,-1.46
2022-12-16T14:23:54.785Z,-1.54
2022-12-16T14:26:34.011Z,-1.57
2022-12-16T14:29:35.296Z,-1.58
2022-12-16T14:32:39.285Z,-1.66
2022-12-16T14:35:33.681Z,-1.68
2022-12-16T14:38:40.550Z,-1.72
2022-12-16T14:41:34.034Z,-1.70
2022-12-16T14:44:34.683Z,-1.67
2022-12-16T14:47:23.787Z,-1.71
2022-12-16T14:50:13.543Z,-1.77
2022-12-16T14:53:03.274Z,-1.71
2022-12-16T14:56:15.984Z,-1.77
2022-12-16T14:59:21.092Z,-1.80
2022-12-16T15:02:11.561Z,-1.85
2022-12-16T15:05:09.929Z,-1.82
2022-12-16T15:08:08.446Z,-1.79
2022-12-16T15:10:58.925Z,-1.79
2022-12-16T15:13:48.579Z,-1.82
2022-12-16T15:16:45.600Z,-1.82
2022-12-16T15:19:36.460Z,-1.82
2022-12-16T15:22:31.253Z,-1.86
2022-12-16T15:25:20.865Z,-1.96
2022-12-16T15:28:17.194Z,-1.96
2022-12-16T15:34:51.428Z,-1.98
2022-12-16T18:07:15.875Z,-1.57
2022-12-16T18:10:05.906Z,-1.15
2022-12-16T18:12:56.530Z,-1.13
2022-12-16T18:15:46.150Z,-1.05
2022-12-16T18:18:37.067Z,-1.08
2022-12-16T18:21:33.557Z,-1.12
2022-12-16T18:24:28.837Z,-1.22
2022-12-16T18:27:19.697Z,-1.16
2022-12-16T18:30:13.760Z,-1.07
2022-12-16T18:33:04.880Z,-1.39
2022-12-16T18:35:58.678Z,-1.40
2022-12-16T18:38:51.218Z,-1.47
2022-12-16T18:41:53.397Z,-1.43
2022-12-16T18:44:48.368Z,-1.50
2022-12-16T18:47:39.197Z,-1.51
2022-12-16T18:50:32.837Z,-1.44
2022-12-16T18:53:27.342Z,-1.38
2022-12-16T18:56:26.080Z,-1.53
2022-12-16T18:59:18.281Z,-1.62
2022-12-16T19:02:08.941Z,-1.64
2022-12-16T19:04:59.459Z,-1.71
2022-12-16T19:07:49.548Z,-1.79
2022-12-16T19:10:39.529Z,-1.91
2022-12-16T19:13:33.170Z,-1.93
2022-12-16T19:16:21.438Z,-1.94
2022-12-16T19:19:15.064Z,-1.87
2022-12-16T19:22:09.607Z,-1.83
2022-12-16T19:25:00.989Z,-1.75
2022-12-16T19:27:59.886Z,-1.74
2022-12-16T19:34:12.679Z,-1.77
2022-12-16T19:37:09.845Z,-1.70
2022-12-16T19:40:08.259Z,-1.68
2022-12-16T19:43:03.017Z,-1.73
2022-12-16T19:46:02.573Z,-1.75
2022-12-16T19:49:08.199Z,-1.71
2022-12-16T19:52:07.241Z,-1.97
2022-12-16T19:55:17.176Z,-1.68
2022-12-16T19:58:20.371Z,-1.97
2022-12-16T20:01:14.572Z,-1.87
2022-12-16T20:04:05.477Z,-1.86
2022-12-16T20:06:58.630Z,-1.96
2022-12-16T20:09:49.118Z,-2.00
2022-12-16T20:12:39.288Z,-1.91
2022-12-16T20:15:38.542Z,-1.96
2022-12-16T20:18:28.524Z,-1.96
2022-12-16T20:21:22.800Z,-1.96
2022-12-16T20:24:17.788Z,-1.91
2022-12-16T20:27:06.457Z,-1.85
2022-12-16T20:29:56.652Z,-1.91
2022-12-16T20:32:48.479Z,-1.90
2022-12-16T20:35:42.557Z,-1.98
2022-12-16T20:38:33.251Z,-1.99
2022-12-16T20:41:24.532Z,-1.97
2022-12-16T20:44:25.737Z,-1.96
2022-12-16T20:47:16.082Z,-1.92
2022-12-16T20:50:05.894Z,-2.01
2022-12-16T20:52:56.057Z,-2.01
2022-12-16T20:55:46.246Z,-2.05
2022-12-16T20:58:56.225Z,-2.03
2022-12-16T21:04:57.952Z,-1.81
2022-12-16T21:07:48.649Z,-1.83
2022-12-16T21:10:40.218Z,-1.94
2022-12-16T21:13:33.837Z,-1.93
2022-12-16T21:16:40.996Z,-2.01
2022-12-16T21:19:33.614Z,-2.02
2022-12-16T21:22:41.597Z,-2.10
2022-12-16T21:25:32.004Z,-2.08
2022-12-16T21:28:23.180Z,-2.09
2022-12-16T21:31:12.717Z,-2.03
2022-12-16T21:34:02.428Z,-2.09
2022-12-16T21:36:52.484Z,-2.09
2022-12-16T21:39:45.448Z,-2.03
2022-12-16T21:42:38.604Z,-2.04
2022-12-16T21:45:31.907Z,-2.07
2022-12-16T21:48:22.808Z,-2.12
2022-12-16T21:51:15.630Z,-2.14
2022-12-16T21:54:09.671Z,-2.24
2022-12-16T21:57:02.188Z,-2.10
2022-12-16T21:59:51.753Z,-2.00
2022-12-16T22:02:41.823Z,-2.08
2022-12-16T22:05:34.805Z,-2.01
2022-12-16T22:08:28.739Z,-2.06
2022-12-16T22:11:18.125Z,-2.18
2022-12-16T22:14:08.469Z,-2.10
2022-12-16T22:16:59.633Z,-2.08
2022-12-16T22:19:50.498Z,-2.09
2022-12-16T22:22:41.488Z,-2.19
2022-12-16T22:25:31.843Z,-2.11
2022-12-16T22:28:21.265Z,-2.02
2022-12-16T22:31:16.347Z,-2.02
2022-12-16T22:34:12.479Z,-1.96
2022-12-16T22:37:02.197Z,-1.96
2022-12-16T22:39:53.317Z,-2.03
2022-12-16T22:42:46.107Z,-2.10
2022-12-16T22:45:35.707Z,-2.03
2022-12-16T22:48:25.669Z,-2.01
2022-12-16T22:51:15.597Z,-1.98
2022-12-16T22:54:07.209Z,-2.06
2022-12-16T22:56:58.973Z,-2.00
2022-12-16T22:59:48.978Z,-2.09
2022-12-16T23:02:41.398Z,-2.09
2022-12-16T23:05:30.887Z,-2.11
2022-12-16T23:08:20.647Z,-2.15
2022-12-16T23:11:15.788Z,-2.22
2022-12-16T23:14:06.556Z,-2.24
2022-12-16T23:16:56.526Z,-2.36
2022-12-16T23:19:46.277Z,-2.35
2022-12-16T23:22:35.937Z,-2.37
2022-12-16T23:25:26.708Z,-2.31
2022-12-16T23:28:17.998Z,-2.27
2022-12-16T23:31:14.605Z,-2.26
2022-12-16T23:34:04.541Z,-2.34
2022-12-16T23:36:54.407Z,-2.31
2022-12-16T23:39:46.128Z,-2.36
2022-12-16T23:42:37.099Z,-2.46
2022-12-16T23:45:28.609Z,-2.52
2022-12-16T23:48:26.346Z,-2.45
2022-12-16T23:51:15.217Z,-2.49
2022-12-16T23:54:05.748Z,-2.58
2022-12-16T23:56:56.405Z,-2.41
2022-12-16T23:59:47.872Z,-2.39
